Airfield :
LOGIN :

Register | Disclaimer

   EN    FR    IT 

 










Legend :    VFR   Marginal VFR   IFR   Intensive IFR   Very Intensive IFR
Visi :
Ceiling :
>= 8 km
>= 3000ft
5 to 8 km
1000 to 3000 ft
1500m to 5 km
500 to 1000 ft
800 to 1500m
200 to 500 ft
< 800m
< 200 ft
Symbols :   Thunderstorms  Fog  Heavy snow  Heavy precipitations  Wind > 20 kt
SIGMETs :     Misc.  Thunderstorms  Icing  Turbulence  Mountain Waves  Volcanic Ashes






- Airport Elevation : 220 ft
- IATA code : CWL


EGFF - Cardiff Rhoose

CURRENT METAR :
  • 071220Z 26012KT 9999 6000NW FEW016 SCT022 BKN032 10/08 Q1014

EXPIRED METARs :
  • 071150Z 25012KT 9999 6000NW FEW016 SCT022 BKN032 10/08 Q1014
  • 071120Z 25009KT 9999 SCT017 BKN026 10/08 Q1014
  • 071050Z 24008KT 9999 SCT013 BKN018 BKN029 10/08 Q1015
  • 071020Z AUTO 24008KT 9999 SCT013 BKN023 OVC031 09/08 Q1015
  • 070950Z AUTO 23006KT 9999 BKN014 OVC027 09/08 Q1015

TAF TAF EGFF
Valid from the 07 at 12:00 until the 08 at 12:00 UTC


071105Z 0712/0812 24007KT 9999 SCT035
PROB30
TEMPO 0712/0724 BKN012
BECMG 0722/0801 22017KT
TEMPO 0722/0803 22020G30KT 6000 RA
PROB30
TEMPO 0723/0802 3000 +RA BKN009
BECMG 0801/0804 26020KT
TEMPO 0801/0806 26023G33KT
PROB30
TEMPO 0801/0812 26030G43KT
PROB30
TEMPO 0803/0812 7000 SHRA
ATIS : +44 1446 729 319



MET'MAP, your aeronautical weather chart ! - Copyright ORBIFLY December 2007 - Disclaimer

ORBIFLY MET'MAP TEAM :

Programming & Development : Alexandra Zaïnal
Concept & original design : Baudouin d'Aumeries
Assistance for programming : Marc-Olivier Méhu
Technical & hardware support : Manuel Goepfert

Contact : metmap@orbifly.com




SOURCES & CREDITS :

   NOAA